createdAt,value
2023-04-20T00:01:33.633Z,100.00
2023-04-20T00:04:03.346Z,100.00
2023-04-20T00:06:33.049Z,100.00
2023-04-20T00:09:01.307Z,100.00
2023-04-20T00:11:29.486Z,100.00
2023-04-20T00:13:57.865Z,100.00
2023-04-20T00:16:26.326Z,100.00
2023-04-20T00:18:54.983Z,100.00
2023-04-20T00:21:24.805Z,100.00
2023-04-20T00:23:52.975Z,100.00
2023-04-20T00:26:21.335Z,100.00
2023-04-20T00:28:53.722Z,100.00
2023-04-20T00:31:21.853Z,100.00
2023-04-20T00:33:50.013Z,100.00
2023-04-20T00:36:18.133Z,100.00
2023-04-20T00:38:47.762Z,100.00
2023-04-20T00:41:16.093Z,100.00
2023-04-20T00:43:51.014Z,100.00
2023-04-20T00:46:19.114Z,100.00
2023-04-20T00:48:47.828Z,100.00
2023-04-20T00:51:15.965Z,100.00
2023-04-20T00:53:44.097Z,100.00
2023-04-20T00:56:15.110Z,100.00
2023-04-20T00:58:43.900Z,100.00
2023-04-20T01:01:12.755Z,100.00
2023-04-20T01:03:40.993Z,100.00
2023-04-20T01:06:09.643Z,100.00
2023-04-20T01:08:38.285Z,100.00
2023-04-20T01:11:06.623Z,100.00
2023-04-20T01:13:38.579Z,100.00
2023-04-20T01:16:08.043Z,100.00
2023-04-20T01:18:42.550Z,100.00
2023-04-20T01:21:10.730Z,100.00
2023-04-20T01:23:40.280Z,100.00
2023-04-20T01:26:08.620Z,100.00
2023-04-20T01:28:37.111Z,100.00
2023-04-20T01:31:05.382Z,100.00
2023-04-20T01:33:33.463Z,100.00
2023-04-20T01:36:01.592Z,100.00
2023-04-20T01:38:32.220Z,100.00
2023-04-20T01:41:05.620Z,100.00
2023-04-20T01:43:34.535Z,100.00
2023-04-20T01:46:02.883Z,100.00
2023-04-20T01:48:31.172Z,100.00
2023-04-20T01:50:59.227Z,100.00
2023-04-20T01:53:27.263Z,100.00
2023-04-20T01:55:55.790Z,100.00
2023-04-20T01:58:26.085Z,100.00
2023-04-20T02:00:54.201Z,100.00
2023-04-20T02:03:22.537Z,100.00
2023-04-20T02:05:51.027Z,100.00
2023-04-20T02:08:19.688Z,100.00
2023-04-20T02:10:47.742Z,100.00
2023-04-20T02:13:15.841Z,100.00
2023-04-20T02:15:47.744Z,100.00
2023-04-20T02:18:17.071Z,100.00
2023-04-20T02:20:45.566Z,100.00
2023-04-20T02:23:14.377Z,100.00
2023-04-20T02:25:42.521Z,100.00
2023-04-20T02:28:12.462Z,100.00
2023-04-20T02:30:40.531Z,100.00
2023-04-20T02:33:10.030Z,100.00
2023-04-20T02:35:38.078Z,100.00
2023-04-20T02:38:06.363Z,100.00
2023-04-20T02:40:34.882Z,100.00
2023-04-20T02:43:03.945Z,100.00
2023-04-20T02:45:33.396Z,100.00
2023-04-20T02:48:01.980Z,100.00
2023-04-20T02:50:35.200Z,100.00
2023-04-20T02:53:23.548Z,100.00
2023-04-20T02:56:10.250Z,100.00
2023-04-20T02:58:48.666Z,100.00
2023-04-20T03:01:43.129Z,100.00
2023-04-20T03:04:16.906Z,100.00
2023-04-20T03:07:05.055Z,100.00
2023-04-20T03:09:35.908Z,100.00
2023-04-20T03:12:24.910Z,100.00
2023-04-20T03:14:56.041Z,100.00
2023-04-20T03:17:33.293Z,100.00
2023-04-20T03:20:01.442Z,100.00
2023-04-20T03:22:31.959Z,100.00
2023-04-20T03:25:02.586Z,100.00
2023-04-20T03:28:00.772Z,100.00
2023-04-20T03:30:30.231Z,100.00
2023-04-20T03:33:04.800Z,100.00
2023-04-20T03:35:33.833Z,100.00
2023-04-20T03:38:03.362Z,100.00
2023-04-20T03:40:31.791Z,100.00
2023-04-20T03:42:59.880Z,100.00
2023-04-20T03:45:29.599Z,100.00
2023-04-20T03:47:58.125Z,100.00
2023-04-20T03:50:27.478Z,100.00
2023-04-20T03:52:56.053Z,100.00
2023-04-20T03:55:25.837Z,100.00
2023-04-20T03:58:00.463Z,100.00
2023-04-20T04:00:35.019Z,100.00
2023-04-20T04:03:09.982Z,100.00
2023-04-20T04:05:38.232Z,100.00
2023-04-20T04:08:06.739Z,100.00
2023-04-20T04:10:36.313Z,100.00
2023-04-20T04:13:04.885Z,100.00
2023-04-20T04:15:33.313Z,100.00
2023-04-20T04:18:06.819Z,100.00
2023-04-20T04:20:36.601Z,100.00
2023-04-20T04:23:04.707Z,100.00
2023-04-20T04:25:40.451Z,100.00
2023-04-20T04:28:10.217Z,100.00
2023-04-20T04:30:44.385Z,100.00
2023-04-20T04:33:14.839Z,100.00
2023-04-20T04:35:46.129Z,100.00
2023-04-20T04:38:15.178Z,100.00
2023-04-20T04:40:48.201Z,100.00
2023-04-20T04:43:19.550Z,100.00
2023-04-20T04:45:58.591Z,100.00
2023-04-20T04:48:26.854Z,100.00
2023-04-20T04:50:55.152Z,100.00
2023-04-20T04:53:23.218Z,100.00
2023-04-20T04:55:52.983Z,100.00
2023-04-20T04:58:21.434Z,100.00
2023-04-20T05:00:49.883Z,100.00
2023-04-20T05:03:18.509Z,100.00
2023-04-20T05:05:46.779Z,100.00
2023-04-20T05:08:15.123Z,100.00
2023-04-20T05:10:43.415Z,100.00
2023-04-20T05:13:12.849Z,100.00
2023-04-20T05:15:42.080Z,100.00
2023-04-20T05:18:12.366Z,100.00
2023-04-20T05:20:40.532Z,100.00
2023-04-20T05:23:08.566Z,100.00
2023-04-20T05:25:37.010Z,100.00
2023-04-20T05:28:05.213Z,100.00
2023-04-20T05:30:34.819Z,100.00
2023-04-20T05:33:03.891Z,100.00
2023-04-20T05:35:32.582Z,100.00
2023-04-20T05:38:02.729Z,100.00
2023-04-20T05:40:30.845Z,100.00
2023-04-20T05:42:58.856Z,100.00
2023-04-20T05:45:26.987Z,100.00
2023-04-20T05:47:57.428Z,100.00
2023-04-20T05:50:26.255Z,100.00
2023-04-20T05:52:54.490Z,100.00
2023-04-20T05:55:23.114Z,100.00
2023-04-20T05:57:52.984Z,100.00
2023-04-20T06:00:23.076Z,100.00
2023-04-20T06:02:54.544Z,100.00
2023-04-20T06:05:24.460Z,100.00
2023-04-20T06:07:53.276Z,100.00
2023-04-20T06:10:21.604Z,100.00
2023-04-20T06:12:49.859Z,100.00
2023-04-20T06:15:18.103Z,100.00
2023-04-20T06:17:46.534Z,100.00
2023-04-20T06:20:14.893Z,100.00
2023-04-20T06:22:45.817Z,100.00
2023-04-20T06:25:15.499Z,100.00
2023-04-20T06:27:44.165Z,100.00
2023-04-20T06:30:12.895Z,100.00
2023-04-20T06:32:40.982Z,100.00
2023-04-20T06:35:09.529Z,100.00
2023-04-20T06:37:38.256Z,100.00
2023-04-20T06:40:09.495Z,100.00
2023-04-20T06:42:37.976Z,100.00
2023-04-20T06:45:06.611Z,100.00
2023-04-20T06:47:34.725Z,100.00
2023-04-20T06:50:04.190Z,100.00
2023-04-20T06:52:32.518Z,100.00
2023-04-20T06:55:01.361Z,100.00
2023-04-20T06:57:30.887Z,100.00
2023-04-20T07:00:00.330Z,100.00
2023-04-20T07:02:28.952Z,100.00
2023-04-20T07:05:01.729Z,100.00
2023-04-20T07:07:29.958Z,100.00
2023-04-20T07:09:58.065Z,100.00
2023-04-20T07:12:26.584Z,100.00
2023-04-20T07:14:56.246Z,100.00
2023-04-20T07:17:25.923Z,100.00
2023-04-20T07:19:54.668Z,100.00
2023-04-20T07:22:23.074Z,100.00
2023-04-20T07:24:51.804Z,100.00
2023-04-20T07:27:20.049Z,100.00
2023-04-20T07:29:48.209Z,100.00
2023-04-20T07:32:17.759Z,100.00
2023-04-20T07:34:45.982Z,100.00
2023-04-20T07:37:14.442Z,100.00
2023-04-20T07:39:42.625Z,100.00
2023-04-20T07:42:10.721Z,100.00
2023-04-20T07:44:38.809Z,100.00
2023-04-20T07:47:07.377Z,100.00
2023-04-20T07:49:40.921Z,100.00
2023-04-20T07:52:16.351Z,100.00
2023-04-20T07:54:45.410Z,100.00
2023-04-20T07:57:13.689Z,100.00
2023-04-20T07:59:41.819Z,100.00
2023-04-20T08:02:10.942Z,100.00
2023-04-20T08:04:41.170Z,100.00
2023-04-20T08:07:09.701Z,100.00
2023-04-20T08:09:38.074Z,100.00
2023-04-20T08:12:06.500Z,100.00
2023-04-20T08:14:34.938Z,100.00
2023-04-20T08:17:03.585Z,100.00
2023-04-20T08:19:32.118Z,100.00
2023-04-20T08:22:02.295Z,100.00
2023-04-20T08:24:31.439Z,100.00
2023-04-20T08:27:01.713Z,100.00
2023-04-20T08:29:29.778Z,100.00
2023-04-20T08:31:58.453Z,100.00
2023-04-20T08:34:26.635Z,100.00
2023-04-20T08:36:54.837Z,100.00
2023-04-20T08:39:24.597Z,100.00
2023-04-20T08:41:54.055Z,100.00
2023-04-20T08:44:22.406Z,100.00
2023-04-20T08:46:50.940Z,100.00
2023-04-20T08:49:20.354Z,100.00
2023-04-20T08:51:49.114Z,100.00
2023-04-20T08:54:17.626Z,100.00
2023-04-20T08:56:48.234Z,100.00
2023-04-20T08:59:17.076Z,100.00
2023-04-20T09:01:46.587Z,100.00
2023-04-20T09:04:19.161Z,100.00
2023-04-20T09:06:50.282Z,100.00
2023-04-20T09:09:18.896Z,100.00
2023-04-20T09:11:48.736Z,100.00
2023-04-20T09:14:18.472Z,100.00
2023-04-20T09:16:51.382Z,100.00
2023-04-20T09:19:23.189Z,100.00
2023-04-20T09:21:51.912Z,100.00
2023-04-20T09:24:21.549Z,100.00
2023-04-20T09:26:51.331Z,100.00
2023-04-20T09:29:20.657Z,100.00
2023-04-20T09:31:49.003Z,100.00
2023-04-20T09:34:17.461Z,100.00
2023-04-20T09:36:46.583Z,100.00
2023-04-20T09:39:16.738Z,100.00
2023-04-20T09:41:44.862Z,100.00
2023-04-20T09:44:15.269Z,100.00
2023-04-20T09:46:43.987Z,100.00
2023-04-20T09:49:12.934Z,100.00
2023-04-20T09:51:43.837Z,100.00
2023-04-20T09:54:12.536Z,100.00
2023-04-20T09:56:41.252Z,100.00
2023-04-20T09:59:09.881Z,100.00
2023-04-20T10:01:39.531Z,100.00
2023-04-20T10:04:10.852Z,100.00
2023-04-20T10:06:39.676Z,100.00
2023-04-20T10:09:08.706Z,100.00
2023-04-20T10:11:51.649Z,100.00
2023-04-20T10:14:23.180Z,100.00
2023-04-20T10:17:02.098Z,100.00
2023-04-20T10:19:40.880Z,100.00
2023-04-20T10:22:09.578Z,99.17
2023-04-20T10:24:38.753Z,97.52
2023-04-20T10:27:17.607Z,98.28
2023-04-20T10:29:45.664Z,97.02
2023-04-20T10:32:24.658Z,96.12
2023-04-20T10:35:02.809Z,95.97
2023-04-20T10:37:32.408Z,96.77
2023-04-20T10:40:00.763Z,96.23
2023-04-20T10:42:29.758Z,97.71
2023-04-20T10:44:58.015Z,95.47
2023-04-20T10:47:31.551Z,97.21
2023-04-20T10:50:07.905Z,96.43
2023-04-20T10:52:37.053Z,95.16
2023-04-20T10:55:05.787Z,92.26
2023-04-20T10:57:33.923Z,96.19
2023-04-20T11:00:02.394Z,92.54
2023-04-20T11:02:32.225Z,96.36
2023-04-20T11:05:01.500Z,94.08
2023-04-20T11:07:30.202Z,94.39
2023-04-20T11:09:58.402Z,94.91
2023-04-20T11:12:26.964Z,97.01
2023-04-20T11:14:56.414Z,99.11
2023-04-20T11:17:40.785Z,98.78
2023-04-20T11:20:11.180Z,94.13
2023-04-20T11:22:39.957Z,94.87
2023-04-20T11:25:08.854Z,93.25
2023-04-20T11:27:37.256Z,93.81
2023-04-20T11:30:06.809Z,92.20
2023-04-20T11:32:38.263Z,95.04
2023-04-20T11:35:08.791Z,90.65
2023-04-20T11:37:47.141Z,89.87
2023-04-20T11:40:15.281Z,90.33
2023-04-20T11:42:43.313Z,89.28
2023-04-20T11:45:12.160Z,90.89
2023-04-20T11:47:42.403Z,91.80
2023-04-20T11:50:11.748Z,93.42
2023-04-20T11:52:40.198Z,96.67
2023-04-20T11:55:08.622Z,97.65
2023-04-20T11:57:37.044Z,95.79
2023-04-20T12:00:06.696Z,94.30
2023-04-20T12:02:43.835Z,94.49
2023-04-20T12:05:12.469Z,96.84
2023-04-20T12:07:40.701Z,97.64
2023-04-20T12:10:09.670Z,99.23
2023-04-20T12:12:38.414Z,98.08
2023-04-20T12:15:07.665Z,98.68
2023-04-20T12:17:35.841Z,100.00
2023-04-20T12:20:08.961Z,100.00
2023-04-20T12:22:37.237Z,100.00
2023-04-20T12:25:06.304Z,100.00
2023-04-20T12:27:34.757Z,100.00
2023-04-20T12:30:04.249Z,100.00
2023-04-20T12:32:32.652Z,98.13
2023-04-20T12:35:00.794Z,94.96
2023-04-20T12:37:30.968Z,99.68
2023-04-20T12:39:58.990Z,100.00
2023-04-20T12:42:27.423Z,97.93
2023-04-20T12:44:56.315Z,100.00
2023-04-20T12:47:24.379Z,100.00
2023-04-20T12:49:52.973Z,97.03
2023-04-20T12:52:21.165Z,99.02
2023-04-20T12:54:51.056Z,97.27
2023-04-20T12:57:19.132Z,98.54
2023-04-20T12:59:48.623Z,96.95
2023-04-20T13:02:18.079Z,92.43
2023-04-20T13:04:47.155Z,94.46
2023-04-20T13:07:15.524Z,97.50
2023-04-20T13:09:43.836Z,93.04
2023-04-20T13:12:14.057Z,95.84
2023-04-20T13:14:42.826Z,95.68
2023-04-20T13:17:10.806Z,97.16
2023-04-20T13:19:38.925Z,95.37
2023-04-20T13:22:07.332Z,98.86
2023-04-20T13:24:35.811Z,99.77
2023-04-20T13:27:04.678Z,99.32
2023-04-20T13:29:34.551Z,98.95
2023-04-20T13:32:02.600Z,96.32
2023-04-20T13:34:30.639Z,97.85
2023-04-20T13:36:59.217Z,97.84
2023-04-20T13:39:27.972Z,98.20
2023-04-20T13:41:56.061Z,99.34
2023-04-20T13:44:24.240Z,100.00
2023-04-20T13:46:53.942Z,95.87
2023-04-20T13:49:23.088Z,98.02
2023-04-20T13:51:51.347Z,98.72
2023-04-20T13:54:19.965Z,99.37
2023-04-20T13:56:49.802Z,99.42
2023-04-20T13:59:18.116Z,100.00
2023-04-20T14:01:46.270Z,99.69
2023-04-20T14:04:17.133Z,98.44
2023-04-20T14:06:45.400Z,100.00
2023-04-20T14:09:13.566Z,99.85
2023-04-20T14:11:43.740Z,100.00
2023-04-20T14:14:12.254Z,100.00
2023-04-20T14:16:44.029Z,100.00
2023-04-20T14:19:12.142Z,100.00
2023-04-20T14:21:44.376Z,98.45
2023-04-20T14:24:12.986Z,96.58
2023-04-20T14:26:41.677Z,97.67
2023-04-20T14:29:09.661Z,98.33
2023-04-20T14:31:37.752Z,98.44
2023-04-20T14:34:05.852Z,98.80
2023-04-20T14:36:34.261Z,96.01
2023-04-20T14:39:03.833Z,97.23
2023-04-20T14:41:33.577Z,100.00
2023-04-20T14:44:01.696Z,100.00
2023-04-20T14:46:29.854Z,100.00
2023-04-20T14:48:58.154Z,100.00
2023-04-20T14:51:27.199Z,99.45
2023-04-20T14:53:55.367Z,99.23
2023-04-20T14:56:25.398Z,99.03
2023-04-20T14:58:53.497Z,100.00
2023-04-20T15:01:21.978Z,100.00
2023-04-20T15:03:50.331Z,100.00
2023-04-20T15:06:18.625Z,98.50
2023-04-20T15:08:46.700Z,100.00
2023-04-20T15:11:15.156Z,100.00
2023-04-20T15:13:44.630Z,100.00
2023-04-20T15:16:13.217Z,100.00
2023-04-20T15:18:41.468Z,100.00
2023-04-20T15:21:10.884Z,100.00
2023-04-20T15:23:39.118Z,100.00
2023-04-20T15:26:08.068Z,100.00
2023-04-20T15:28:36.440Z,100.00
2023-04-20T15:31:06.959Z,100.00
2023-04-20T15:33:35.236Z,100.00
2023-04-20T15:36:03.521Z,100.00
2023-04-20T15:38:31.889Z,100.00
2023-04-20T15:41:00.089Z,100.00
2023-04-20T15:43:28.159Z,100.00
2023-04-20T15:45:56.204Z,100.00
2023-04-20T15:48:26.154Z,100.00
2023-04-20T15:50:54.545Z,100.00
2023-04-20T15:53:23.103Z,100.00
2023-04-20T15:55:51.592Z,100.00
2023-04-20T15:58:19.693Z,100.00
2023-04-20T16:00:47.832Z,100.00
2023-04-20T16:03:16.488Z,100.00
2023-04-20T16:05:46.239Z,100.00
2023-04-20T16:08:14.694Z,100.00
2023-04-20T16:10:43.024Z,100.00
2023-04-20T16:13:11.980Z,100.00
2023-04-20T16:15:40.195Z,100.00
2023-04-20T16:18:08.679Z,100.00
2023-04-20T16:20:37.218Z,100.00
2023-04-20T16:23:07.773Z,100.00
2023-04-20T16:25:38.476Z,100.00
2023-04-20T16:28:06.653Z,100.00
2023-04-20T16:30:34.736Z,100.00
2023-04-20T16:33:03.069Z,100.00
2023-04-20T16:35:31.135Z,100.00
2023-04-20T16:37:59.490Z,100.00
2023-04-20T16:40:29.508Z,100.00
2023-04-20T16:42:57.726Z,100.00
2023-04-20T16:45:25.921Z,100.00
2023-04-20T16:47:54.347Z,100.00
2023-04-20T16:50:22.457Z,100.00
2023-04-20T16:52:50.742Z,100.00
2023-04-20T16:55:19.150Z,100.00
2023-04-20T16:57:48.657Z,100.00
2023-04-20T17:00:17.243Z,100.00
2023-04-20T17:02:45.927Z,100.00
2023-04-20T17:05:14.836Z,100.00
2023-04-20T17:07:42.881Z,100.00
2023-04-20T17:10:11.192Z,100.00
2023-04-20T17:12:42.838Z,100.00
2023-04-20T17:15:13.770Z,100.00
2023-04-20T17:17:42.701Z,100.00
2023-04-20T17:20:11.580Z,100.00
2023-04-20T17:22:40.360Z,100.00
2023-04-20T17:25:08.998Z,100.00
2023-04-20T17:27:37.706Z,100.00
2023-04-20T17:30:06.263Z,100.00
2023-04-20T17:32:36.309Z,100.00
2023-04-20T17:35:04.506Z,100.00
2023-04-20T17:37:33.016Z,100.00
2023-04-20T17:40:01.569Z,100.00
2023-04-20T17:42:30.798Z,100.00
2023-04-20T17:44:59.691Z,100.00
2023-04-20T17:47:31.239Z,100.00
2023-04-20T17:50:01.434Z,100.00
2023-04-20T17:52:29.492Z,100.00
2023-04-20T17:55:00.125Z,100.00
2023-04-20T17:57:28.253Z,100.00
2023-04-20T17:59:56.729Z,100.00
2023-04-20T18:02:25.094Z,100.00
2023-04-20T18:04:55.393Z,100.00
2023-04-20T18:07:25.249Z,100.00
2023-04-20T18:09:53.448Z,100.00
2023-04-20T18:12:21.857Z,100.00
2023-04-20T18:14:49.972Z,100.00
2023-04-20T18:17:18.561Z,100.00
2023-04-20T18:19:46.718Z,100.00
2023-04-20T18:22:15.402Z,100.00
2023-04-20T18:24:45.112Z,100.00
2023-04-20T18:27:13.859Z,100.00
2023-04-20T18:29:42.240Z,100.00
2023-04-20T18:32:10.364Z,100.00
2023-04-20T18:34:38.718Z,100.00
2023-04-20T18:37:07.865Z,100.00
2023-04-20T18:39:36.772Z,100.00
2023-04-20T18:42:07.037Z,100.00
2023-04-20T18:44:35.578Z,100.00
2023-04-20T18:47:03.991Z,100.00
2023-04-20T18:49:32.850Z,100.00
2023-04-20T18:52:01.718Z,100.00
2023-04-20T18:54:30.894Z,100.00
2023-04-20T18:56:59.620Z,100.00
2023-04-20T18:59:29.200Z,100.00
2023-04-20T19:01:57.412Z,100.00
2023-04-20T19:04:26.034Z,100.00
2023-04-20T19:06:54.100Z,100.00
2023-04-20T19:09:22.286Z,100.00
2023-04-20T19:11:51.288Z,100.00
2023-04-20T19:14:19.673Z,100.00
2023-04-20T19:16:49.788Z,100.00
2023-04-20T19:19:17.916Z,100.00
2023-04-20T19:21:46.218Z,100.00
2023-04-20T19:24:14.488Z,100.00
2023-04-20T19:26:42.641Z,100.00
2023-04-20T19:29:12.456Z,100.00
2023-04-20T19:31:42.231Z,100.00
2023-04-20T19:34:15.639Z,100.00
2023-04-20T19:36:44.292Z,100.00
2023-04-20T19:39:13.211Z,100.00
2023-04-20T19:41:42.276Z,100.00
2023-04-20T19:44:12.231Z,100.00
2023-04-20T19:46:40.928Z,100.00
2023-04-20T19:49:09.106Z,100.00
2023-04-20T19:51:38.900Z,100.00
2023-04-20T19:54:07.444Z,100.00
2023-04-20T19:56:37.128Z,100.00
2023-04-20T19:59:05.366Z,100.00
2023-04-20T20:01:33.432Z,100.00
2023-04-20T20:04:02.029Z,100.00
2023-04-20T20:06:31.119Z,100.00
2023-04-20T20:09:00.909Z,100.00
2023-04-20T20:11:29.160Z,100.00
2023-04-20T20:13:57.144Z,100.00
2023-04-20T20:16:28.192Z,100.00
2023-04-20T20:18:56.939Z,100.00
2023-04-20T20:21:25.392Z,100.00
2023-04-20T20:23:53.712Z,100.00
2023-04-20T20:26:23.813Z,100.00
2023-04-20T20:28:52.410Z,100.00
2023-04-20T20:31:21.912Z,100.00
2023-04-20T20:33:50.528Z,100.00
2023-04-20T20:36:19.138Z,100.00
2023-04-20T20:38:47.421Z,100.00
2023-04-20T20:41:16.581Z,100.00
2023-04-20T20:43:46.741Z,100.00
2023-04-20T20:46:15.482Z,100.00
2023-04-20T20:48:43.602Z,100.00
2023-04-20T20:51:12.259Z,100.00
2023-04-20T20:53:41.313Z,100.00
2023-04-20T20:56:09.590Z,100.00
2023-04-20T20:58:38.000Z,100.00
2023-04-20T21:01:07.963Z,100.00
2023-04-20T21:03:37.117Z,100.00
2023-04-20T21:06:06.098Z,100.00
2023-04-20T21:08:34.455Z,100.00
2023-04-20T21:11:02.524Z,100.00
2023-04-20T21:13:31.185Z,100.00
2023-04-20T21:15:59.634Z,100.00
2023-04-20T21:18:30.198Z,100.00
2023-04-20T21:20:58.483Z,100.00
2023-04-20T21:23:26.845Z,100.00
2023-04-20T21:25:54.911Z,100.00
2023-04-20T21:28:23.155Z,100.00
2023-04-20T21:30:52.204Z,100.00
2023-04-20T21:33:20.412Z,100.00
2023-04-20T21:35:50.674Z,100.00
2023-04-20T21:38:18.851Z,100.00
2023-04-20T21:40:47.045Z,100.00
2023-04-20T21:43:15.197Z,100.00
2023-04-20T21:45:43.475Z,100.00
2023-04-20T21:48:12.053Z,100.00
2023-04-20T21:50:40.323Z,100.00
2023-04-20T21:53:10.307Z,100.00
2023-04-20T21:55:38.338Z,100.00
2023-04-20T21:58:06.407Z,100.00
2023-04-20T22:00:34.701Z,100.00
2023-04-20T22:03:03.185Z,100.00
2023-04-20T22:05:31.813Z,100.00
2023-04-20T22:08:00.217Z,100.00
2023-04-20T22:10:29.722Z,100.00
2023-04-20T22:12:58.196Z,100.00
2023-04-20T22:15:26.301Z,100.00
2023-04-20T22:17:54.812Z,100.00
2023-04-20T22:20:23.161Z,100.00
2023-04-20T22:22:51.262Z,100.00
2023-04-20T22:25:20.057Z,100.00
2023-04-20T22:27:49.639Z,100.00
2023-04-20T22:30:17.937Z,100.00
2023-04-20T22:32:46.235Z,100.00
2023-04-20T22:35:15.038Z,100.00
2023-04-20T22:37:43.130Z,100.00
2023-04-20T22:40:12.429Z,100.00
2023-04-20T22:42:40.466Z,100.00
2023-04-20T22:45:11.932Z,100.00
2023-04-20T22:47:40.800Z,100.00
2023-04-20T22:50:12.353Z,100.00
2023-04-20T22:52:40.582Z,100.00
2023-04-20T22:55:09.968Z,100.00
2023-04-20T22:57:39.091Z,100.00
2023-04-20T23:00:10.912Z,100.00
2023-04-20T23:02:41.099Z,100.00
2023-04-20T23:05:09.767Z,100.00
2023-04-20T23:07:37.986Z,100.00
2023-04-20T23:10:07.142Z,100.00
2023-04-20T23:12:35.159Z,100.00
2023-04-20T23:15:03.864Z,100.00
2023-04-20T23:17:32.608Z,100.00
2023-04-20T23:20:02.075Z,100.00
2023-04-20T23:22:31.085Z,100.00
2023-04-20T23:24:59.391Z,100.00
2023-04-20T23:27:27.401Z,100.00
2023-04-20T23:29:55.691Z,100.00
2023-04-20T23:32:24.725Z,100.00
2023-04-20T23:34:52.922Z,100.00
2023-04-20T23:37:22.537Z,100.00
2023-04-20T23:39:50.800Z,100.00
2023-04-20T23:42:19.109Z,100.00
2023-04-20T23:44:47.353Z,100.00
2023-04-20T23:47:15.809Z,100.00
2023-04-20T23:49:44.113Z,100.00
2023-04-20T23:52:12.589Z,100.00
2023-04-20T23:54:42.077Z,100.00
2023-04-20T23:57:10.148Z,100.00
2023-04-20T23:59:38.443Z,100.00
